Date,TemperatureHighF,TemperatureAvgF,TemperatureLowF,DewpointHighF,DewpointAvgF,DewpointLowF,HumidityHigh,HumidityAvg,HumidityLow,PressureMaxIn,PressureMinIn,WindSpeedMaxMPH,WindSpeedAvgMPH,GustSpeedMaxMPH,PrecipitationSumIn
2013-1-1,37,34,31,36,31,27,97,89,81,30.34,30.09,12,6,16,0.00
2013-1-2,41,34,28,29,27,25,87,78,61,30.39,30.28,8,3,13,0.00
2013-1-3,46,36,27,31,26,24,89,69,43,30.53,30.38,10,3,16,0.00
2013-1-4,46,39,32,32,28,24,76,65,52,30.57,30.39,13,3,19,0.00
2013-1-5,53,43,35,36,34,32,92,74,49,30.39,30.22,13,4,20,0.00
2013-1-6,54,43,34,33,24,21,84,51,28,30.46,30.33,11,4,15,0.00
2013-1-7,52,41,32,33,27,21,71,59,44,30.37,30.14,11,4,18,0.00
2013-1-8,48,44,40,46,39,32,96,81,69,30.17,30.02,12,4,15,0.18
2013-1-9,54,50,47,53,49,46,97,96,95,30.25,30.06,18,8,28,0.45
2013-1-10,57,52,48,55,50,45,98,91,82,30.07,29.87,14,7,20,0.16
2013-1-11,69,57,47,57,49,43,91,75,50,29.92,29.73,21,9,28,0.00
2013-1-12,61,45,30,58,37,23,94,76,44,30.05,29.75,21,9,27,0.11
2013-1-13,35,29,24,23,18,15,76,64,48,30.40,30.00,19,9,23,0.01
2013-1-14,41,31,24,18,16,13,73,55,34,30.47,30.31,15,7,19,0.00
2013-1-15,35,30,26,24,20,17,76,66,53,30.34,30.24,10,5,16,0.00
2013-1-16,48,36,22,23,19,15,73,52,29,30.33,30.20,9,2,16,0.00
2013-1-17,56,45,36,34,29,20,75,55,38,30.54,30.29,13,5,19,0.00
2013-1-18,58,46,34,36,32,28,88,60,38,30.54,30.26,16,6,21,0.00
2013-1-19,64,52,40,41,37,34,78,60,37,30.26,30.13,11,6,16,0.00
2013-1-20,67,53,38,46,41,36,92,66,40,30.24,30.09,14,2,17,0.00
2013-1-21,49,41,30,39,21,14,75,47,32,30.37,30.18,18,7,22,0.00
2013-1-22,60,45,31,43,31,18,83,58,46,30.35,30.21,11,4,14,0.00
2013-1-23,72,55,38,54,46,35,90,74,47,30.27,30.12,13,4,17,0.00
2013-1-24,59,51,46,52,48,39,97,89,73,30.19,30.08,10,3,13,0.01
2013-1-25,51,42,35,44,35,31,95,78,60,30.27,30.10,12,5,14,0.00
2013-1-26,47,43,38,44,41,33,97,91,76,30.27,30.12,12,4,14,0.00
2013-1-27,69,56,44,61,53,43,98,89,72,30.13,29.91,28,8,28,0.00
2013-1-28,74,69,64,64,63,61,93,82,70,29.99,29.77,19,11,27,0.00
2013-1-29,73,63,51,65,55,30,95,76,40,29.79,29.46,26,9,37,0.28
2013-1-30,50,42,37,42,28,21,83,58,36,30.14,29.64,21,9,36,0.00
2013-1-31,64,45,31,31,24,18,73,48,22,30.42,30.10,24,6,28,0.00
2013-2-1,54,38,24,34,23,12,70,55,39,30.46,30.19,14,6,20,0.00
2013-2-2,62,48,35,36,31,28,76,55,33,30.35,30.18,11,4,17,0.00
2013-2-3,62,52,40,34,32,30,70,49,31,30.35,29.97,11,4,16,0.00
2013-2-4,71,60,52,51,44,30,89,57,36,29.98,29.80,18,6,25,0.00
2013-2-5,60,53,49,57,51,47,98,94,87,30.05,29.91,7,2,10,0.00
2013-2-6,60,55,51,59,54,50,99,97,92,30.06,29.88,12,6,22,0.00
2013-2-7,72,58,48,59,53,40,98,85,46,30.15,29.82,20,8,29,0.01
2013-2-8,58,48,38,40,33,26,78,60,31,30.32,30.15,15,6,17,0.00
2013-2-9,53,45,42,53,41,34,97,86,70,30.17,29.73,17,8,29,0.02
2013-2-10,63,55,48,57,34,25,98,49,24,30.05,29.69,17,4,22,0.36
2013-2-11,57,48,40,34,29,26,61,48,32,30.23,30.05,14,6,17,0.00
2013-2-12,46,41,37,41,38,33,95,88,61,30.09,29.91,15,6,23,0.72
2013-2-13,57,44,35,40,33,26,92,70,32,30.17,30.03,10,3,14,0.00
2013-2-14,64,51,36,37,33,29,88,55,26,30.20,30.02,13,3,21,0.00
2013-2-15,50,42,36,36,24,17,72,49,31,30.42,30.20,15,7,26,0.00
2013-2-16,53,42,32,32,26,19,86,57,32,30.46,30.17,10,4,14,0.00
2013-2-17,70,54,39,42,33,28,74,48,23,30.17,29.84,31,10,33,0.00
2013-2-18,66,57,46,53,41,28,83,57,31,30.16,29.71,27,11,34,0.00
2013-2-19,56,46,36,28,26,21,70,46,27,30.37,30.16,11,4,17,0.00
2013-2-20,47,38,35,37,33,25,94,83,43,30.27,29.89,18,8,27,0.66
2013-2-21,54,42,33,44,35,27,95,79,53,30.02,29.67,21,8,26,0.28
2013-2-22,44,34,26,27,21,17,81,61,46,30.22,30.01,13,5,20,0.00
2013-2-23,50,37,26,32,25,20,81,62,43,30.18,29.96,9,3,14,0.00
2013-2-24,64,50,34,43,36,28,80,60,39,29.97,29.67,18,8,26,0.00
2013-2-25,52,44,36,43,39,33,94,83,59,29.72,29.46,21,7,28,0.14
2013-2-26,52,43,36,33,31,25,85,63,37,29.95,29.64,24,9,31,0.00
2013-2-27,51,41,35,30,27,18,79,60,29,30.27,29.93,21,8,28,0.00
2013-2-28,53,41,31,29,27,24,83,59,33,30.32,30.23,19,8,27,0.00
2013-3-1,48,38,31,31,28,26,83,67,50,30.37,30.26,16,6,22,0.00
2013-3-2,51,39,26,28,24,20,82,58,38,30.48,30.26,12,4,16,0.00
2013-3-3,68,52,36,38,32,26,74,48,29,30.26,29.70,22,10,26,0.00
2013-3-4,78,64,47,44,40,33,75,45,26,29.89,29.59,31,10,34,0.00
2013-3-5,52,45,39,40,24,15,78,45,27,30.42,29.89,35,11,40,0.00
2013-3-6,56,44,32,23,21,16,64,42,21,30.51,30.22,10,4,11,0.00
2013-3-7,69,55,41,33,27,22,50,35,20,30.25,30.09,21,8,29,0.00
2013-3-8,61,56,52,55,47,32,88,73,42,30.17,29.96,17,9,22,0.00
2013-3-9,65,59,55,62,56,54,96,92,81,29.96,29.64,18,8,24,1.10
2013-3-10,57,46,38,54,36,29,95,69,57,30.12,29.69,21,8,28,0.01
2013-3-11,57,42,30,30,24,15,85,53,23,30.16,30.03,12,4,18,0.00
2013-3-12,61,51,38,38,30,22,65,47,29,30.36,30.06,16,4,17,0.00
2013-3-13,63,53,40,35,30,23,62,44,30,30.50,30.34,9,4,13,0.00
2013-3-14,77,61,46,46,40,33,64,48,30,30.36,30.15,17,7,22,0.00
2013-3-15,81,67,54,51,47,44,76,50,30,30.15,29.82,22,10,26,0.00
2013-3-16,80,69,58,58,51,43,71,54,39,29.82,29.66,17,9,26,0.00
2013-3-17,67,53,46,55,44,38,78,70,61,29.81,29.67,12,5,19,0.00
2013-3-18,64,53,44,44,40,35,89,65,35,30.05,29.66,15,6,21,0.00
2013-3-19,61,53,42,38,34,26,78,51,31,30.19,30.01,16,5,20,0.00
2013-3-20,62,52,41,37,30,26,63,44,25,30.36,30.06,11,4,13,0.00
2013-3-21,63,52,46,46,37,30,76,58,47,30.06,29.58,20,10,25,0.02
2013-3-22,47,44,39,42,39,36,90,83,69,29.92,29.63,19,8,25,0.00
2013-3-23,48,45,42,45,43,39,95,92,87,29.92,29.70,14,5,26,0.08
2013-3-24,48,40,34,39,26,16,89,59,30,30.25,29.89,25,12,34,0.00
2013-3-25,46,39,30,22,17,12,67,43,27,30.45,30.24,17,8,26,0.00
2013-3-26,55,42,28,27,19,15,64,43,27,30.54,30.32,9,3,10,0.00
2013-3-27,67,53,39,41,32,24,59,45,31,30.33,30.09,25,10,36,0.00
2013-3-28,68,60,49,56,50,41,83,69,55,30.20,30.07,20,9,26,0.00
2013-3-29,73,65,59,58,57,55,88,75,57,30.15,30.02,19,8,28,0.05
2013-3-30,77,66,56,63,59,54,94,78,59,30.03,29.86,26,7,39,0.12
2013-3-31,70,64,56,61,51,43,92,65,39,30.01,29.80,19,5,40,0.45
2013-4-1,76,64,52,49,44,41,73,52,30,30.09,29.96,18,4,24,0.00
2013-4-2,57,47,42,48,44,40,95,89,64,30.12,29.97,17,9,27,0.41
2013-4-3,43,41,39,41,39,37,96,91,79,30.22,30.06,15,7,21,0.37
2013-4-4,52,44,39,41,39,37,95,84,66,30.26,30.16,11,5,15,0.02
2013-4-5,66,53,37,48,42,35,92,70,47,30.28,30.01,15,5,19,0.00
2013-4-6,74,64,54,57,51,46,80,65,47,30.01,29.82,17,10,30,0.00
2013-4-7,69,64,58,61,59,55,90,83,76,29.87,29.70,21,10,28,0.00
2013-4-8,75,69,64,64,62,58,85,77,65,29.71,29.62,22,13,32,0.00
2013-4-9,78,71,50,66,62,42,86,74,62,29.77,29.60,27,12,35,0.00
2013-4-10,50,39,35,42,34,32,91,84,73,30.04,29.75,22,10,34,0.58
2013-4-11,59,45,34,38,32,27,84,62,38,30.04,29.85,11,4,13,0.00
2013-4-12,70,56,43,44,40,36,81,59,37,30.04,29.87,10,3,13,0.00
2013-4-13,74,63,51,49,45,40,68,53,35,30.02,29.76,16,7,24,0.00
2013-4-14,79,68,56,64,56,47,82,66,50,29.78,29.50,30,10,34,0.00
2013-4-15,85,76,67,68,66,63,90,72,53,29.71,29.55,19,10,25,0.00
2013-4-16,82,75,70,67,66,64,85,73,59,29.89,29.71,17,7,27,0.00
2013-4-17,82,76,71,69,67,66,93,76,62,29.85,29.52,23,12,35,0.00
2013-4-18,76,50,41,70,40,30,91,70,50,30.18,29.53,28,11,33,0.47
2013-4-19,63,49,36,34,28,21,74,49,26,30.29,30.15,13,5,20,0.00
2013-4-20,68,57,46,40,34,27,62,43,22,30.19,30.03,23,9,32,0.00
2013-4-21,67,59,50,49,44,37,73,58,48,30.20,30.08,22,7,27,0.00
2013-4-22,75,64,51,59,52,44,79,65,52,30.13,29.80,24,10,29,0.00
2013-4-23,66,49,39,59,44,33,93,83,72,30.24,29.78,19,9,24,0.02
2013-4-24,59,46,34,33,29,26,82,55,31,30.38,30.24,15,6,24,0.00
2013-4-25,70,57,40,44,35,29,71,46,22,30.38,30.15,15,4,18,0.00
2013-4-26,71,64,57,64,54,44,90,72,51,30.20,29.95,19,8,22,0.01
2013-4-27,70,63,56,65,56,52,92,77,57,30.12,29.94,19,6,22,0.00
2013-4-28,81,65,49,62,54,47,94,70,36,30.05,29.84,12,4,18,0.00
2013-4-29,85,73,61,64,59,49,93,66,32,29.88,29.74,19,7,30,0.00
2013-4-30,80,72,60,62,60,56,87,67,48,29.80,29.72,15,8,25,0.00
2013-5-1,81,70,63,66,62,54,95,77,51,30.03,29.77,14,6,19,0.00
2013-5-2,61,45,40,53,39,34,89,79,70,30.40,30.04,22,12,30,0.03
2013-5-3,63,50,34,35,30,24,87,52,23,30.39,30.05,19,6,31,0.00
2013-5-4,65,54,43,40,32,17,68,47,17,30.08,29.93,20,6,32,0.00
2013-5-5,64,55,46,47,43,37,74,64,53,30.19,30.07,18,6,19,0.00
2013-5-6,76,64,48,52,49,45,88,63,39,30.14,30.00,10,3,13,0.00
2013-5-7,81,69,57,54,52,46,79,57,32,30.09,29.92,10,4,17,0.00
2013-5-8,85,72,62,60,54,43,74,55,23,29.97,29.82,20,8,26,0.00
2013-5-9,74,69,64,66,61,57,92,76,62,29.96,29.83,14,5,23,0.00
2013-5-10,77,69,62,63,59,54,97,74,48,30.08,29.91,13,4,18,0.03
2013-5-11,80,67,55,57,52,46,88,62,32,30.22,30.07,19,5,20,0.12
2013-5-12,76,65,53,53,40,33,68,42,21,30.27,30.12,12,5,16,0.00
2013-5-13,90,75,57,50,45,38,55,37,21,30.19,30.03,17,7,23,0.00
2013-5-14,87,77,66,58,53,47,59,45,27,30.09,29.93,18,8,25,0.00
2013-5-15,77,69,61,68,63,56,95,81,57,29.97,29.69,17,7,24,0.88
2013-5-16,67,64,61,65,62,60,96,94,92,29.84,29.73,12,5,17,0.49
2013-5-17,84,72,64,75,69,63,99,90,67,29.86,29.77,13,5,18,0.00
2013-5-18,90,80,71,72,71,70,96,77,53,29.85,29.69,18,8,28,0.00
2013-5-19,86,80,73,72,69,65,79,69,61,29.77,29.57,27,14,37,0.00
2013-5-20,86,76,64,71,67,59,90,76,52,29.74,29.61,28,10,52,1.54
2013-5-21,69,63,56,67,60,55,96,90,80,29.87,29.67,23,5,39,1.36
2013-5-22,83,69,54,62,57,50,97,70,33,29.95,29.84,9,3,15,0.01
2013-5-23,84,73,60,69,64,58,93,75,49,30.07,29.90,19,6,37,0.44
2013-5-24,81,72,64,72,67,62,92,84,73,30.15,30.04,14,6,18,0.01
2013-5-25,79,69,65,70,66,63,94,89,71,30.18,30.00,20,5,21,0.30
2013-5-26,83,75,67,72,69,65,96,85,67,30.06,29.89,15,8,22,0.00
2013-5-27,81,75,71,71,69,67,91,81,68,29.94,29.74,26,11,29,0.00
2013-5-28,81,77,71,69,67,66,85,73,64,29.83,29.67,21,12,33,0.00
2013-5-29,78,74,63,72,68,61,95,84,72,29.79,29.64,23,11,42,2.64
2013-5-30,87,77,68,73,70,65,94,79,60,29.75,29.61,22,11,33,0.00
2013-5-31,87,81,75,75,72,71,87,75,65,29.77,29.58,24,13,30,0.00
2013-6-1,82,76,65,73,65,55,95,72,40,29.98,29.62,19,7,25,1.12
2013-6-2,78,70,61,58,55,48,85,61,42,30.10,29.95,15,5,20,0.00
2013-6-3,83,72,59,65,60,56,89,70,51,30.00,29.82,11,5,16,0.00
2013-6-4,86,76,66,72,67,63,95,76,57,30.03,29.78,34,8,34,1.08
2013-6-5,84,75,68,73,68,-100,95,80,65,29.97,29.79,15,-2,27,0.83
2013-6-6,76,71,65,69,65,61,96,82,65,29.96,29.83,11,5,20,0.87
2013-6-7,81,71,62,63,58,53,87,65,42,30.01,29.90,8,3,12,0.00
2013-6-8,83,74,64,66,61,58,84,65,47,29.94,29.77,12,6,19,0.00
2013-6-9,88,77,66,69,65,61,94,70,43,29.92,29.80,10,3,13,0.36
2013-6-10,94,82,71,72,68,65,86,66,43,29.93,29.85,8,5,13,0.00
2013-6-11,92,83,73,73,70,65,83,66,51,29.97,29.87,13,7,17,0.00
2013-6-12,92,83,75,74,71,68,82,68,50,30.00,29.89,13,7,19,0.00
2013-6-13,95,85,74,75,72,68,82,66,47,30.01,29.86,7,4,9,0.00
2013-6-14,93,85,75,74,72,70,85,65,49,29.96,29.86,7,3,11,0.00
2013-6-15,87,81,75,75,73,69,91,78,62,29.98,29.87,11,4,17,0.00
2013-6-16,94,83,71,75,71,68,91,70,50,29.99,29.83,8,4,12,0.00
2013-6-17,87,76,66,72,68,64,95,78,59,29.99,29.83,15,5,20,1.27
2013-6-18,85,76,70,70,68,65,90,75,52,30.00,29.90,8,4,13,0.00
2013-6-19,85,78,70,74,71,68,96,82,69,30.00,29.85,9,4,14,0.00
2013-6-20,90,82,75,74,72,69,90,72,50,29.99,29.90,12,7,17,0.00
2013-6-21,91,83,76,74,71,68,81,67,49,30.01,29.91,13,8,21,0.00
2013-6-22,91,83,76,71,69,66,81,64,49,29.99,29.84,14,9,20,0.00
2013-6-23,91,83,76,72,70,66,84,65,44,29.93,29.83,14,9,21,0.00
2013-6-24,90,83,75,71,70,68,80,66,53,29.98,29.84,13,9,18,0.00
2013-6-25,92,84,77,74,70,66,78,63,53,29.92,29.76,17,10,26,0.00
2013-6-26,93,85,77,75,71,65,73,63,55,29.90,29.77,14,8,19,0.00
2013-6-27,99,87,76,76,72,68,82,63,42,29.97,29.81,10,5,14,0.00
2013-6-28,96,87,79,73,67,64,65,52,35,29.96,29.82,10,4,14,0.00
2013-6-29,92,85,77,67,63,59,66,50,35,29.92,29.80,10,4,15,0.00
2013-6-30,86,80,73,64,58,55,58,48,36,29.97,29.82,11,6,18,0.00
2013-7-1,84,75,66,61,56,50,70,52,33,30.06,29.95,11,6,17,0.00
2013-7-2,85,76,64,57,53,49,68,46,30,30.10,30.00,9,4,15,0.00
2013-7-3,87,78,66,58,55,52,75,47,32,30.06,29.94,7,2,9,0.00
2013-7-4,90,79,68,66,60,56,72,55,32,30.01,29.88,8,5,11,0.00
2013-7-5,91,80,71,68,64,61,80,60,38,29.98,29.84,10,5,13,0.05
2013-7-6,92,82,74,68,64,61,66,56,40,29.93,29.83,10,6,15,0.00
2013-7-7,92,83,73,70,66,64,77,58,40,29.98,29.91,9,5,13,0.00
2013-7-8,93,84,76,74,71,65,85,66,47,30.05,29.95,10,6,15,0.00
2013-7-9,97,86,76,72,68,63,72,56,38,30.06,29.92,10,6,16,0.00
2013-7-10,101,89,78,74,69,63,68,53,35,30.00,29.86,8,4,11,0.00
2013-7-11,101,88,79,72,68,65,70,54,31,29.93,29.81,13,4,16,0.00
2013-7-12,95,85,75,73,70,69,87,63,43,29.95,29.86,8,4,11,0.00
2013-7-13,95,85,76,71,68,65,79,58,41,29.98,29.85,9,5,11,0.00
2013-7-14,82,72,64,68,65,60,94,82,50,30.01,29.88,10,3,19,0.70
2013-7-15,73,67,62,68,65,61,97,93,82,30.13,29.98,7,3,9,1.25
2013-7-16,85,75,69,73,70,68,97,85,64,30.20,30.10,9,4,13,0.14
2013-7-17,88,80,72,74,72,70,95,78,56,30.24,30.14,10,4,17,0.02
2013-7-18,93,83,74,74,71,69,93,69,47,30.18,29.99,6,2,8,0.00
2013-7-19,96,82,74,73,71,69,89,70,45,30.03,29.89,13,3,15,0.00
2013-7-20,93,81,73,73,71,68,91,73,45,29.95,29.82,13,4,15,0.00
2013-7-21,94,84,73,74,72,70,92,68,46,29.88,29.79,9,6,14,0.00
2013-7-22,95,86,76,76,73,71,88,67,49,29.90,29.80,11,6,17,0.00
2013-7-23,96,87,79,77,73,70,78,64,48,29.91,29.75,10,6,14,0.00
2013-7-24,89,80,67,73,70,65,94,74,52,30.06,29.79,22,5,22,0.85
2013-7-25,86,80,73,72,71,69,91,76,59,30.06,29.95,6,3,9,0.00
2013-7-26,88,77,72,77,72,70,96,85,66,30.00,29.86,12,6,19,0.92
2013-7-27,85,76,69,70,68,66,92,78,56,30.04,29.92,7,4,10,0.00
2013-7-28,87,79,71,71,68,64,90,71,51,29.98,29.87,10,5,13,0.00
2013-7-29,89,81,75,76,73,69,88,76,63,29.97,29.86,11,6,16,0.03
2013-7-30,93,84,74,77,73,65,87,71,55,30.01,29.90,12,6,17,0.03
2013-7-31,94,85,78,78,74,71,88,71,55,30.02,29.92,7,3,10,0.00
2013-8-1,93,85,77,76,73,70,84,70,51,30.02,29.89,8,5,13,0.00
2013-8-2,101,88,78,74,72,68,81,61,35,29.92,29.79,10,6,13,0.00
2013-8-3,97,87,78,73,70,67,72,57,41,29.99,29.85,8,6,12,0.00
2013-8-4,96,87,76,73,70,67,82,60,39,30.02,29.89,9,5,15,0.00
2013-8-5,100,89,78,74,70,68,77,56,35,29.94,29.77,9,5,14,0.00
2013-8-6,102,90,80,72,68,64,68,50,30,29.85,29.72,11,6,18,0.00
2013-8-7,104,90,80,73,70,66,72,52,31,29.82,29.69,9,5,13,0.00
2013-8-8,97,88,78,73,70,66,79,57,37,29.86,29.73,9,4,12,0.07
2013-8-9,97,82,74,75,72,67,90,73,43,29.98,29.81,16,5,17,0.01
2013-8-10,89,81,74,74,70,67,90,72,48,30.09,29.98,8,5,12,0.00
2013-8-11,97,84,71,72,70,67,91,66,39,30.07,29.94,7,3,10,0.00
2013-8-12,98,84,76,74,71,68,89,67,39,30.00,29.87,13,4,20,0.67
2013-8-13,88,80,74,74,72,68,94,80,53,30.02,29.89,11,4,15,0.07
2013-8-14,86,77,70,71,69,66,92,77,54,30.06,29.95,10,5,13,0.00
2013-8-15,85,76,68,67,64,60,81,68,54,30.08,29.92,8,4,10,0.00
2013-8-16,83,72,64,66,64,62,94,77,54,30.09,29.94,17,4,27,0.06
2013-8-17,83,74,64,65,62,59,86,68,50,30.12,30.00,8,3,12,0.00
2013-8-18,86,76,66,66,63,60,83,65,45,30.11,29.99,7,3,10,0.00
2013-8-19,91,80,68,68,64,61,85,61,39,30.07,29.93,9,4,12,0.00
2013-8-20,92,82,69,67,62,57,79,55,31,30.03,29.92,8,3,10,0.00
2013-8-21,94,84,72,68,62,58,75,51,31,30.06,29.95,9,4,15,0.00
2013-8-22,96,86,74,71,67,64,75,55,37,30.06,29.90,8,3,13,0.00
2013-8-23,96,85,76,72,69,65,80,60,36,30.01,29.90,12,4,15,0.00
2013-8-24,96,85,74,72,68,63,84,59,35,30.06,29.95,9,4,15,0.00
2013-8-25,95,85,76,71,68,65,80,58,38,30.13,30.03,10,4,14,0.00
2013-8-26,92,84,75,70,66,62,77,58,38,30.16,30.03,9,4,19,0.00
2013-8-27,88,80,72,72,68,62,86,67,48,30.10,29.98,10,4,16,0.00
2013-8-28,95,84,72,71,68,65,87,61,38,30.07,29.96,8,3,13,0.00
2013-8-29,100,88,76,69,66,63,73,50,31,30.04,29.91,8,2,14,0.00
2013-8-30,102,90,77,68,65,62,68,47,27,29.98,29.82,7,3,10,0.00
2013-8-31,103,91,78,68,64,60,67,44,26,29.87,29.74,6,3,10,0.00
2013-9-1,105,89,78,73,67,56,67,50,25,29.85,29.74,11,3,19,0.00
2013-9-2,94,85,78,74,70,61,84,62,45,29.97,29.84,9,4,13,0.00
2013-9-3,94,82,70,65,62,58,75,53,31,30.01,29.89,8,5,10,0.00
2013-9-4,95,84,73,71,65,62,75,55,36,30.06,29.96,8,4,12,0.00
2013-9-5,96,84,73,69,64,61,68,52,33,30.10,29.99,7,3,10,0.00
2013-9-6,96,85,72,68,63,61,68,50,32,30.07,29.92,6,3,11,0.00
2013-9-7,98,86,75,69,65,63,68,51,35,29.99,29.87,11,3,15,0.00
2013-9-8,96,85,73,70,65,60,80,54,32,29.95,29.84,9,4,14,0.00
2013-9-9,93,84,74,70,64,58,74,53,32,29.97,29.87,11,5,17,0.00
2013-9-10,92,83,74,70,64,55,77,55,34,30.08,29.93,11,5,17,0.00
2013-9-11,93,83,72,70,64,57,69,53,40,30.12,29.98,8,3,16,0.00
2013-9-12,94,83,73,70,67,66,80,61,41,30.06,29.93,9,3,14,0.00
2013-9-13,92,81,74,70,68,64,83,67,41,29.98,29.85,14,4,18,0.00
2013-9-14,88,78,70,69,62,55,85,59,42,29.99,29.88,10,5,14,0.00
2013-9-15,92,81,69,69,63,55,64,55,43,30.02,29.92,8,4,13,0.00
2013-9-16,91,83,74,68,65,63,70,55,40,30.09,29.95,8,3,11,0.00
2013-9-17,93,82,74,70,65,60,72,59,36,30.05,29.93,8,3,12,0.01
2013-9-18,93,84,77,70,67,64,73,58,39,29.98,29.84,12,5,16,0.00
2013-9-19,90,82,71,71,68,65,91,64,45,29.95,29.85,11,5,18,0.01
2013-9-20,73,70,64,69,66,57,96,89,78,29.97,29.88,9,5,13,0.21
2013-9-21,81,69,58,57,49,38,85,54,23,30.02,29.89,10,5,18,0.00
2013-9-22,82,70,57,53,50,45,78,51,28,29.95,29.80,7,3,10,0.00
2013-9-23,83,71,59,55,52,51,79,55,34,29.87,29.73,10,4,14,0.00
2013-9-24,89,76,62,59,50,41,77,45,20,29.94,29.83,10,3,14,0.00
2013-9-25,91,72,62,56,49,44,59,45,23,29.90,29.77,5,2,10,0.00
2013-10-2,86,81,75,70,69,68,78,66,56,29.88,29.82,12,7,17,0.00
2013-10-3,88,79,72,72,69,67,89,73,52,29.88,29.75,14,9,21,0.00
2013-10-4,86,79,72,70,68,66,91,72,53,29.87,29.78,15,8,21,0.00
2013-10-5,78,60,49,68,50,39,88,71,57,30.12,29.82,14,5,18,0.41
2013-10-6,73,59,49,45,36,24,76,47,16,30.15,30.05,10,3,16,0.00
2013-10-7,78,65,50,43,37,32,67,39,20,30.19,30.08,8,2,9,0.00
2013-10-8,78,64,52,53,47,42,74,56,32,30.13,29.99,9,3,13,0.00
2013-10-9,80,67,55,55,53,50,84,62,36,30.07,29.96,11,5,15,0.00
2013-10-10,81,69,58,63,58,54,89,68,45,30.04,29.85,13,6,18,0.00
2013-10-11,84,74,66,70,66,59,89,76,58,29.88,29.78,15,8,21,0.00
2013-10-12,84,76,67,73,68,63,94,79,52,30.08,29.83,10,4,31,0.72
2013-10-13,74,69,65,68,65,62,95,89,81,30.21,30.08,8,4,12,0.00
2013-10-14,71,68,66,69,66,64,97,94,84,30.15,29.89,11,6,16,2.32
2013-10-15,71,60,52,69,57,49,96,92,83,30.11,29.88,11,6,14,0.50
2013-10-16,63,55,49,52,45,42,94,71,48,30.17,30.06,9,5,14,0.01
2013-10-17,72,56,44,51,46,41,91,70,46,30.15,29.99,6,2,9,0.00
2013-10-18,67,56,44,56,49,41,90,79,53,30.18,29.92,13,4,21,0.03
2013-10-19,66,50,36,42,38,34,92,67,35,30.24,30.09,11,3,14,0.00
2013-10-20,70,57,43,47,42,39,87,60,35,30.09,29.86,13,6,21,0.00
2013-10-21,60,54,48,52,47,39,90,77,63,30.15,29.90,9,4,14,0.00
2013-10-22,76,58,42,49,44,38,86,62,36,30.18,30.02,5,1,9,0.00
2013-10-23,79,64,52,52,48,44,77,57,32,30.15,30.01,7,3,12,0.00
2013-10-24,66,59,49,49,44,36,79,58,40,30.33,30.03,11,6,17,0.00
2013-10-25,63,52,43,44,39,36,77,62,47,30.45,30.26,11,5,16,0.00
2013-10-26,60,55,51,59,51,44,97,88,72,30.26,30.06,8,4,16,0.64
2013-10-27,64,58,54,59,56,53,98,93,82,30.15,30.01,7,2,9,0.00
2013-10-28,68,60,52,65,59,51,98,94,85,30.12,30.01,9,5,11,0.01
2013-10-29,74,70,67,69,67,64,94,89,82,30.06,29.94,13,8,20,0.00
2013-10-30,71,68,64,68,66,63,97,93,87,29.98,29.75,15,10,25,0.10
2013-10-31,68,64,55,66,53,42,98,70,42,29.86,29.64,9,5,20,0.03
2013-11-1,74,60,49,50,44,41,86,59,32,30.12,29.83,10,3,13,0.00
2013-11-2,64,55,47,42,36,31,69,50,29,30.33,30.12,11,4,19,0.00
2013-11-3,63,54,43,45,39,32,81,58,42,30.23,29.98,14,7,21,0.00
2013-11-4,61,58,54,57,52,45,96,82,66,30.09,29.98,15,8,20,0.30
2013-11-5,67,61,58,66,60,57,98,97,95,30.07,29.93,10,6,14,0.90
2013-11-6,67,50,43,66,42,36,96,75,51,30.41,29.94,13,6,21,0.50
2013-11-7,63,50,38,41,38,34,86,63,39,30.53,30.40,5,2,6,0.00
2013-11-8,64,53,44,43,39,34,86,61,34,30.40,30.13,15,6,18,0.00
2013-11-9,66,59,53,52,48,42,76,67,57,30.25,30.11,13,6,16,0.00
2013-11-10,63,57,52,51,49,47,86,74,59,30.37,30.25,5,2,7,0.00
2013-11-11,71,60,51,57,53,48,90,77,58,30.35,30.17,12,2,19,0.00
2013-11-12,58,40,32,52,25,16,87,55,32,30.75,30.35,15,9,25,0.00
2013-11-13,50,38,28,27,23,18,75,55,37,30.75,30.40,9,4,12,0.00
2013-11-14,53,44,33,40,31,26,80,60,40,30.39,30.02,12,6,15,0.00
2013-11-15,67,60,50,55,50,40,92,71,52,30.02,29.82,10,6,16,0.00
2013-11-16,74,67,59,64,60,55,90,80,63,29.82,29.61,18,12,26,0.02
2013-11-17,78,70,61,66,50,26,91,55,26,30.05,29.64,13,6,17,0.00
2013-11-18,67,59,51,37,30,22,47,34,24,30.23,30.05,11,5,16,0.00
2013-11-19,62,56,53,39,34,28,54,43,27,30.20,30.01,11,7,17,0.00
2013-11-20,61,55,49,52,40,32,74,56,44,30.03,29.87,12,9,19,0.00
2013-11-21,66,53,34,65,52,33,96,94,87,30.31,29.97,17,9,23,0.46
2013-11-22,34,32,30,32,29,27,94,90,85,30.56,30.31,15,6,22,0.00
2013-11-23,39,34,32,31,28,25,94,79,58,30.65,30.54,14,5,21,0.30
2013-11-24,33,30,28,26,21,16,85,70,57,30.68,30.38,11,5,14,0.00
2013-11-25,34,32,29,32,30,25,95,93,85,30.41,30.25,7,2,12,0.11
2013-11-26,49,40,34,33,30,20,91,69,42,30.43,30.23,14,8,21,0.01
2013-11-27,43,34,25,20,15,12,63,46,29,30.52,30.38,12,4,20,0.00
2013-11-28,52,40,30,29,24,18,70,55,37,30.48,30.37,8,4,15,0.00
2013-11-29,57,44,33,36,31,26,77,61,36,30.52,30.35,10,5,14,0.00
2013-11-30,63,52,41,51,45,35,90,78,61,30.35,30.14,12,7,16,0.00
2013-12-1,62,54,49,54,50,46,96,86,72,30.15,29.91,8,4,11,0.00
2013-12-2,48,42,40,46,41,39,97,95,91,29.91,29.83,2,0,4,0.01
2013-12-9,30,26,21,21,18,16,80,71,68,30.50,30.30,12,6,18,0.00
2013-12-10,37,26,15,20,16,11,84,68,47,30.58,30.37,13,4,14,0.04
2013-12-11,43,32,22,27,23,18,89,72,52,30.66,30.36,13,4,18,0.01
2013-12-12,43,34,25,31,26,19,80,72,60,30.68,30.32,12,4,14,0.00
2013-12-13,44,39,36,41,36,30,97,88,75,30.32,29.82,16,6,21,0.37
2013-12-14,42,37,33,41,32,26,97,82,63,30.36,29.85,20,6,26,0.01
2013-12-15,59,43,28,35,29,24,85,61,34,30.37,30.23,9,3,14,0.00
2013-12-16,65,48,35,39,34,29,84,61,35,30.25,30.14,9,4,13,0.00
2013-12-17,72,52,37,39,34,29,83,54,25,30.31,30.20,7,1,13,0.00
2013-12-18,68,54,39,48,38,29,75,57,34,30.29,29.96,19,6,24,0.00
2013-12-19,68,62,54,57,55,47,87,76,66,29.95,29.70,26,12,33,0.00
2013-12-20,63,42,31,60,40,29,94,90,83,29.92,29.72,16,6,18,0.09
2013-12-21,38,35,31,37,34,30,97,95,90,29.87,29.62,10,2,15,1.78
2013-12-22,36,31,25,34,26,21,91,80,68,30.46,29.87,16,7,21,0.01
2013-12-23,40,28,22,28,24,20,93,84,58,30.65,30.45,8,3,15,0.00
2013-12-24,48,34,22,34,28,20,92,78,55,30.63,30.27,19,6,22,0.00
2013-12-25,41,37,32,34,32,28,88,82,74,30.47,30.30,13,4,17,0.00
2013-12-26,55,40,28,36,29,26,93,68,36,30.49,30.37,7,2,13,0.00
2013-12-27,58,43,32,35,29,26,85,60,29,30.47,30.35,7,2,11,0.00
2013-12-28,58,46,36,42,36,31,90,70,54,30.35,29.97,15,4,19,0.00
2013-12-29,45,35,28,41,28,16,87,76,62,30.35,29.96,22,7,27,0.00
2013-12-30,42,32,20,19,16,11,71,54,39,30.47,30.32,10,2,13,0.00
2013-12-31,53,39,27,29,24,18,70,56,36,30.47,30.22,13,5,19,0.00
2014-1-1,66,43,26,42,31,17,83,64,37,30.30,29.88,21,8,27,0.00
2014-1-2,38,28,20,20,16,13,76,62,43,30.55,30.30,20,5,24,0.00